createdAt,value
2023-05-11T00:00:12.949Z,14.04
2023-05-11T00:01:12.940Z,14.02
2023-05-11T00:02:12.936Z,14.04
2023-05-11T00:03:13.033Z,14.04
2023-05-11T00:04:12.948Z,14.02
2023-05-11T00:05:12.896Z,14.01
2023-05-11T00:06:12.866Z,14.01
2023-05-11T00:07:12.882Z,14.01
2023-05-11T00:08:14.300Z,14.01
2023-05-11T00:09:12.869Z,13.99
2023-05-11T00:10:12.861Z,14.01
2023-05-11T00:11:12.824Z,13.98
2023-05-11T00:12:12.806Z,13.99
2023-05-11T00:13:12.791Z,13.98
2023-05-11T00:14:12.782Z,13.98
2023-05-11T00:15:12.778Z,13.98
2023-05-11T00:16:12.802Z,13.98
2023-05-11T00:17:12.752Z,13.96
2023-05-11T00:18:12.725Z,13.96
2023-05-11T00:19:12.774Z,13.94
2023-05-11T00:20:12.719Z,13.93
2023-05-11T00:21:12.724Z,13.94
2023-05-11T00:22:12.695Z,13.93
2023-05-11T00:23:12.679Z,13.91
2023-05-11T00:24:12.680Z,13.90
2023-05-11T00:25:12.686Z,13.90
2023-05-11T00:26:12.655Z,13.90
2023-05-11T00:27:12.644Z,13.90
2023-05-11T00:28:12.657Z,13.90
2023-05-11T00:29:12.610Z,13.88
2023-05-11T00:30:12.606Z,13.88
2023-05-11T00:31:12.626Z,13.87
2023-05-11T00:32:12.609Z,13.86
2023-05-11T00:33:12.605Z,13.86
2023-05-11T00:34:12.563Z,13.84
2023-05-11T00:35:12.558Z,13.83
2023-05-11T00:36:12.534Z,13.84
2023-05-11T00:37:12.539Z,13.84
2023-05-11T00:38:12.530Z,13.84
2023-05-11T00:39:12.553Z,13.83
2023-05-11T00:40:12.497Z,13.83
2023-05-11T00:41:12.494Z,13.86
2023-05-11T00:42:12.496Z,13.86
2023-05-11T00:43:12.470Z,13.84
2023-05-11T00:44:12.456Z,13.84
2023-05-11T00:45:12.436Z,13.86
2023-05-11T00:46:12.424Z,13.86
2023-05-11T00:47:12.514Z,13.86
2023-05-11T00:48:12.416Z,13.86
2023-05-11T00:49:12.395Z,13.84
2023-05-11T00:50:12.385Z,13.84
2023-05-11T00:51:12.378Z,13.84
2023-05-11T00:52:12.381Z,13.84
2023-05-11T00:53:12.352Z,13.84
2023-05-11T00:54:12.355Z,13.86
2023-05-11T00:55:12.344Z,13.86
2023-05-11T00:56:12.341Z,13.86
2023-05-11T00:57:12.305Z,13.86
2023-05-11T00:58:12.316Z,13.84
2023-05-11T00:59:12.289Z,13.86
2023-05-11T01:00:12.299Z,13.86
2023-05-11T01:01:12.345Z,13.84
2023-05-11T01:02:12.279Z,13.83
2023-05-11T01:03:12.286Z,13.83
2023-05-11T01:04:12.225Z,13.83
2023-05-11T01:05:12.234Z,13.83
2023-05-11T01:06:12.245Z,13.83
2023-05-11T01:07:12.224Z,13.83
2023-05-11T01:08:12.210Z,13.81
2023-05-11T01:09:12.188Z,13.81
2023-05-11T01:10:12.184Z,13.83
2023-05-11T01:11:12.178Z,13.83
2023-05-11T01:12:12.167Z,13.80
2023-05-11T01:13:12.154Z,13.81
2023-05-11T01:14:12.128Z,13.80
2023-05-11T01:15:12.123Z,13.80
2023-05-11T01:16:12.177Z,13.79
2023-05-11T01:17:12.102Z,13.80
2023-05-11T01:18:12.131Z,13.79
2023-05-11T01:19:12.101Z,13.79
2023-05-11T01:20:12.069Z,13.76
2023-05-11T01:21:12.059Z,13.79
2023-05-11T01:22:12.066Z,13.79
2023-05-11T01:23:12.043Z,13.76
2023-05-11T01:24:12.032Z,13.76
2023-05-11T01:25:12.024Z,13.75
2023-05-11T01:26:12.018Z,13.75
2023-05-11T01:27:11.982Z,13.75
2023-05-11T01:28:11.980Z,13.75
2023-05-11T01:29:11.983Z,13.75
2023-05-11T01:30:11.947Z,13.76
2023-05-11T01:31:11.940Z,13.75
2023-05-11T01:32:11.975Z,13.76
2023-05-11T01:33:12.008Z,13.73
2023-05-11T01:34:11.922Z,13.73
2023-05-11T01:35:11.923Z,13.76
2023-05-11T01:36:11.933Z,13.75
2023-05-11T01:37:11.905Z,13.76
2023-05-11T01:38:11.928Z,13.75
2023-05-11T01:39:11.909Z,13.75
2023-05-11T01:40:11.869Z,13.75
2023-05-11T01:41:11.840Z,13.76
2023-05-11T01:42:11.875Z,13.76
2023-05-11T01:43:11.876Z,13.75
2023-05-11T01:44:11.875Z,13.75
2023-05-11T01:45:11.877Z,13.75
2023-05-11T01:46:11.834Z,13.73
2023-05-11T01:47:11.769Z,13.73
2023-05-11T01:48:11.771Z,13.73
2023-05-11T01:49:11.788Z,13.73
2023-05-11T01:50:11.751Z,13.75
2023-05-11T01:51:11.737Z,13.75
2023-05-11T01:52:11.717Z,13.72
2023-05-11T01:53:11.712Z,13.71
2023-05-11T01:54:11.675Z,13.72
2023-05-11T01:55:11.694Z,13.69
2023-05-11T01:56:11.675Z,13.71
2023-05-11T01:57:11.654Z,13.69
2023-05-11T01:58:11.636Z,13.69
2023-05-11T01:59:11.632Z,13.68
2023-05-11T02:00:11.637Z,13.68
2023-05-11T02:01:11.676Z,13.66
2023-05-11T02:02:11.616Z,13.66
2023-05-11T02:03:11.732Z,13.66
2023-05-11T02:04:11.590Z,13.68
2023-05-11T02:05:11.571Z,13.68
2023-05-11T02:06:11.568Z,13.66
2023-05-11T02:07:11.546Z,13.65
2023-05-11T02:08:11.542Z,13.66
2023-05-11T02:09:11.523Z,13.65
2023-05-11T02:10:11.510Z,13.65
2023-05-11T02:11:11.510Z,13.66
2023-05-11T02:12:11.498Z,13.66
2023-05-11T02:13:11.496Z,13.66
2023-05-11T02:14:11.483Z,13.65
2023-05-11T02:15:11.460Z,13.63
2023-05-11T02:16:11.473Z,13.62
2023-05-11T02:17:11.441Z,13.62
2023-05-11T02:18:11.419Z,13.59
2023-05-11T02:19:11.443Z,13.61
2023-05-11T02:20:11.394Z,13.59
2023-05-11T02:21:11.394Z,13.59
2023-05-11T02:22:11.410Z,13.57
2023-05-11T02:23:11.379Z,13.55
2023-05-11T02:24:11.362Z,13.57
2023-05-11T02:25:11.373Z,13.59
2023-05-11T02:26:11.333Z,13.59
2023-05-11T02:27:11.329Z,13.61
2023-05-11T02:28:11.320Z,13.59
2023-05-11T02:29:11.322Z,13.59
2023-05-11T02:30:11.297Z,13.57
2023-05-11T02:31:11.322Z,13.59
2023-05-11T02:32:11.297Z,13.61
2023-05-11T02:33:11.268Z,13.61
2023-05-11T02:34:11.268Z,13.59
2023-05-11T02:35:11.247Z,13.59
2023-05-11T02:36:11.224Z,13.59
2023-05-11T02:37:11.253Z,13.59
2023-05-11T02:38:11.207Z,13.55
2023-05-11T02:39:11.214Z,13.57
2023-05-11T02:40:11.181Z,13.57
2023-05-11T02:41:11.186Z,13.57
2023-05-11T02:42:11.160Z,13.57
2023-05-11T02:43:11.170Z,13.59
2023-05-11T02:44:11.152Z,13.59
2023-05-11T02:45:11.155Z,13.57
2023-05-11T02:46:11.141Z,13.57
2023-05-11T02:47:11.117Z,13.54
2023-05-11T02:48:11.110Z,13.54
2023-05-11T02:49:11.107Z,13.54
2023-05-11T02:50:11.100Z,13.51
2023-05-11T02:51:11.074Z,13.51
2023-05-11T02:52:11.058Z,13.51
2023-05-11T02:53:11.050Z,13.50
2023-05-11T02:54:11.032Z,13.50
2023-05-11T02:55:11.047Z,13.48
2023-05-11T02:56:11.016Z,13.48
2023-05-11T02:57:10.999Z,13.50
2023-05-11T02:58:11.016Z,13.51
2023-05-11T02:59:10.999Z,13.50
2023-05-11T03:00:10.990Z,13.51
2023-05-11T03:01:11.065Z,13.51
2023-05-11T03:02:11.091Z,13.48
2023-05-11T03:03:11.048Z,13.47
2023-05-11T03:04:10.961Z,13.47
2023-05-11T03:05:10.987Z,13.46
2023-05-11T03:06:10.919Z,13.47
2023-05-11T03:07:10.902Z,13.46
2023-05-11T03:08:10.909Z,13.46
2023-05-11T03:09:10.872Z,13.46
2023-05-11T03:10:10.862Z,13.44
2023-05-11T03:11:10.885Z,13.43
2023-05-11T03:12:10.840Z,13.44
2023-05-11T03:13:10.842Z,13.41
2023-05-11T03:14:10.849Z,13.41
2023-05-11T03:15:10.814Z,13.38
2023-05-11T03:16:10.814Z,13.36
2023-05-11T03:17:10.789Z,13.36
2023-05-11T03:18:10.778Z,13.35
2023-05-11T03:19:10.777Z,13.32
2023-05-11T03:20:10.757Z,13.29
2023-05-11T03:21:10.763Z,13.29
2023-05-11T03:22:10.734Z,13.29
2023-05-11T03:23:10.732Z,13.31
2023-05-11T03:24:10.709Z,13.29
2023-05-11T03:25:10.755Z,13.29
2023-05-11T03:26:10.728Z,13.27
2023-05-11T03:27:10.693Z,13.27
2023-05-11T03:28:10.669Z,13.25
2023-05-11T03:29:10.669Z,13.25
2023-05-11T03:30:10.650Z,13.25
2023-05-11T03:31:10.657Z,13.24
2023-05-11T03:32:10.672Z,13.25
2023-05-11T03:33:10.702Z,13.25
2023-05-11T03:34:10.608Z,13.22
2023-05-11T03:35:10.631Z,13.24
2023-05-11T03:36:10.586Z,13.24
2023-05-11T03:37:10.598Z,13.25
2023-05-11T03:38:10.560Z,13.24
2023-05-11T03:39:10.577Z,13.24
2023-05-11T03:40:10.573Z,13.24
2023-05-11T03:41:10.543Z,13.24
2023-05-11T03:42:10.544Z,13.25
2023-05-11T03:43:10.519Z,13.25
2023-05-11T03:44:10.506Z,13.27
2023-05-11T03:45:10.491Z,13.25
2023-05-11T03:46:11.239Z,13.25
2023-05-11T03:47:10.516Z,13.24
2023-05-11T03:48:11.482Z,13.22
2023-05-11T03:49:12.854Z,13.25
2023-05-11T03:50:11.247Z,13.25
2023-05-11T03:51:10.467Z,13.25
2023-05-11T03:52:11.457Z,13.25
2023-05-11T03:53:10.937Z,13.24
2023-05-11T03:54:11.214Z,13.24
2023-05-11T03:55:10.427Z,13.27
2023-05-11T03:56:11.083Z,13.25
2023-05-11T03:57:10.439Z,13.22
2023-05-11T03:58:11.240Z,13.22
2023-05-11T03:59:10.498Z,13.24
2023-05-11T04:00:11.145Z,13.22
2023-05-11T04:01:10.442Z,13.22
2023-05-11T04:02:11.142Z,13.24
2023-05-11T04:03:10.703Z,13.22
2023-05-11T04:04:10.533Z,13.22
2023-05-11T04:05:10.402Z,13.24
2023-05-11T04:06:10.990Z,13.22
2023-05-11T04:07:10.295Z,13.24
2023-05-11T04:08:11.223Z,13.22
2023-05-11T04:09:10.336Z,13.21
2023-05-11T04:10:10.999Z,13.19
2023-05-11T04:11:10.316Z,13.19
2023-05-11T04:12:10.938Z,13.16
2023-05-11T04:13:10.289Z,13.16
2023-05-11T04:14:10.913Z,13.19
2023-05-11T04:15:10.229Z,13.19
2023-05-11T04:16:10.985Z,13.19
2023-05-11T04:17:10.279Z,13.17
2023-05-11T04:18:10.356Z,13.19
2023-05-11T04:19:10.159Z,13.19
2023-05-11T04:20:10.889Z,13.17
2023-05-11T04:21:10.136Z,13.19
2023-05-11T04:22:10.812Z,13.17
2023-05-11T04:23:10.620Z,13.19
2023-05-11T04:24:10.786Z,13.16
2023-05-11T04:25:10.122Z,13.17
2023-05-11T04:26:10.070Z,13.17
2023-05-11T04:27:10.119Z,13.16
2023-05-11T04:28:10.071Z,13.17
2023-05-11T04:29:10.065Z,13.19
2023-05-11T04:30:11.505Z,13.19
2023-05-11T04:31:10.069Z,13.17
2023-05-11T04:32:10.006Z,13.17
2023-05-11T04:33:09.984Z,13.21
2023-05-11T04:34:09.969Z,13.19
2023-05-11T04:35:09.978Z,13.19
2023-05-11T04:36:09.946Z,13.19
2023-05-11T04:37:09.934Z,13.19
2023-05-11T04:38:09.942Z,13.22
2023-05-11T04:39:09.922Z,13.22
2023-05-11T04:40:09.893Z,13.21
2023-05-11T04:41:09.909Z,13.21
2023-05-11T04:42:09.871Z,13.21
2023-05-11T04:43:09.862Z,13.22
2023-05-11T04:44:09.847Z,13.24
2023-05-11T04:45:09.843Z,13.25
2023-05-11T04:46:09.844Z,13.27
2023-05-11T04:47:09.944Z,13.27
2023-05-11T04:48:09.868Z,13.25
2023-05-11T04:49:09.801Z,13.27
2023-05-11T04:50:09.778Z,13.27
2023-05-11T04:51:09.798Z,13.28
2023-05-11T04:52:09.762Z,13.27
2023-05-11T04:53:09.766Z,13.28
2023-05-11T04:54:09.743Z,13.29
2023-05-11T04:55:09.742Z,13.31
2023-05-11T04:56:09.739Z,13.32
2023-05-11T04:57:09.709Z,13.32
2023-05-11T04:58:09.699Z,13.32
2023-05-11T04:59:09.706Z,13.31
2023-05-11T05:00:09.724Z,13.31
2023-05-11T05:01:09.739Z,13.32
2023-05-11T05:02:09.706Z,13.29
2023-05-11T05:03:09.699Z,13.31
2023-05-11T05:04:09.655Z,13.32
2023-05-11T05:05:09.624Z,13.31
2023-05-11T05:06:09.631Z,13.32
2023-05-11T05:07:09.602Z,13.29
2023-05-11T05:08:09.589Z,13.29
2023-05-11T05:09:09.584Z,13.28
2023-05-11T05:10:09.572Z,13.28
2023-05-11T05:11:09.568Z,13.29
2023-05-11T05:12:09.554Z,13.32
2023-05-11T05:13:09.571Z,13.35
2023-05-11T05:14:09.539Z,13.36
2023-05-11T05:15:09.518Z,13.39
2023-05-11T05:16:09.516Z,13.38
2023-05-11T05:17:09.559Z,13.39
2023-05-11T05:18:09.538Z,13.41
2023-05-11T05:19:09.497Z,13.39
2023-05-11T05:20:09.467Z,13.38
2023-05-11T05:21:09.467Z,13.38
2023-05-11T05:22:09.448Z,13.38
2023-05-11T05:23:09.434Z,13.36
2023-05-11T05:24:09.424Z,13.36
2023-05-11T05:25:09.424Z,13.36
2023-05-11T05:26:09.408Z,13.36
2023-05-11T05:27:09.399Z,13.36
2023-05-11T05:28:09.393Z,13.36
2023-05-11T05:29:09.387Z,13.38
2023-05-11T05:30:09.390Z,13.38
2023-05-11T05:31:09.400Z,13.43
2023-05-11T05:32:09.351Z,13.46
2023-05-11T05:33:09.353Z,13.46
2023-05-11T05:34:09.314Z,13.46
2023-05-11T05:35:09.326Z,13.46
2023-05-11T05:36:09.314Z,13.47
2023-05-11T05:37:09.294Z,13.48
2023-05-11T05:38:09.276Z,13.50
2023-05-11T05:39:09.265Z,13.51
2023-05-11T05:40:09.253Z,13.53
2023-05-11T05:41:09.243Z,13.54
2023-05-11T05:42:09.240Z,13.53
2023-05-11T05:43:09.230Z,13.51
2023-05-11T05:44:09.207Z,13.54
2023-05-11T05:45:09.217Z,13.57
2023-05-11T05:46:09.224Z,13.57
2023-05-11T05:47:09.167Z,13.55
2023-05-11T05:48:09.204Z,13.59
2023-05-11T05:49:09.157Z,13.59
2023-05-11T05:50:09.154Z,13.57
2023-05-11T05:51:09.147Z,13.57
2023-05-11T05:52:09.124Z,13.59
2023-05-11T05:53:09.127Z,13.61
2023-05-11T05:54:09.098Z,13.62
2023-05-11T05:55:09.098Z,13.66
2023-05-11T05:56:09.081Z,13.65
2023-05-11T05:57:09.069Z,13.68
2023-05-11T05:58:09.062Z,13.69
2023-05-11T05:59:09.048Z,13.68
2023-05-11T06:00:09.028Z,13.69
2023-05-11T06:01:09.016Z,13.66
2023-05-11T06:02:09.798Z,13.65
2023-05-11T06:03:09.137Z,13.66
2023-05-11T06:04:09.210Z,13.66
2023-05-11T06:05:08.996Z,13.69
2023-05-11T06:06:08.979Z,13.69
2023-05-11T06:07:08.963Z,13.69
2023-05-11T06:08:10.651Z,13.68
2023-05-11T06:09:08.944Z,13.66
2023-05-11T06:10:08.949Z,13.68
2023-05-11T06:11:08.902Z,13.68
2023-05-11T06:12:08.929Z,13.68
2023-05-11T06:13:08.890Z,13.69
2023-05-11T06:14:08.903Z,13.69
2023-05-11T06:15:08.883Z,13.71
2023-05-11T06:16:08.890Z,13.72
2023-05-11T06:17:08.851Z,13.75
2023-05-11T06:18:08.944Z,13.79
2023-05-11T06:19:09.002Z,13.79
2023-05-11T06:20:08.828Z,13.80
2023-05-11T06:21:08.809Z,13.84
2023-05-11T06:22:08.794Z,13.86
2023-05-11T06:23:08.774Z,13.87
2023-05-11T06:24:08.778Z,13.87
2023-05-11T06:25:08.757Z,13.88
2023-05-11T06:26:08.743Z,13.90
2023-05-11T06:27:08.750Z,13.90
2023-05-11T06:28:08.728Z,13.93
2023-05-11T06:29:08.739Z,13.96
2023-05-11T06:30:08.708Z,14.02
2023-05-11T06:31:08.689Z,14.04
2023-05-11T06:32:08.698Z,14.05
2023-05-11T06:33:08.713Z,14.08
2023-05-11T06:34:08.673Z,14.09
2023-05-11T06:35:08.645Z,14.08
2023-05-11T06:36:08.641Z,14.09
2023-05-11T06:37:08.640Z,14.12
2023-05-11T06:38:08.623Z,14.12
2023-05-11T06:39:08.610Z,14.09
2023-05-11T06:40:08.599Z,14.09
2023-05-11T06:41:08.579Z,14.11
2023-05-11T06:42:08.591Z,14.09
2023-05-11T06:43:08.556Z,14.08
2023-05-11T06:44:08.555Z,14.09
2023-05-11T06:45:08.583Z,14.11
2023-05-11T06:46:08.555Z,14.13
2023-05-11T06:47:08.515Z,14.13
2023-05-11T06:48:08.544Z,14.17
2023-05-11T06:49:08.514Z,14.17
2023-05-11T06:50:08.485Z,14.19
2023-05-11T06:51:08.470Z,14.17
2023-05-11T06:52:08.463Z,14.17
2023-05-11T06:53:08.466Z,14.19
2023-05-11T06:54:08.447Z,14.21
2023-05-11T06:55:08.427Z,14.21
2023-05-11T06:56:08.441Z,14.19
2023-05-11T06:57:08.421Z,14.19
2023-05-11T06:58:08.398Z,14.20
2023-05-11T06:59:08.388Z,14.23
2023-05-11T07:00:08.389Z,14.24
2023-05-11T07:01:08.414Z,14.24
2023-05-11T07:02:08.363Z,14.24
2023-05-11T07:03:08.374Z,14.27
2023-05-11T07:04:08.357Z,14.27
2023-05-11T07:05:08.452Z,14.27
2023-05-11T07:06:08.327Z,14.30
2023-05-11T07:07:08.298Z,14.29
2023-05-11T07:08:08.309Z,14.29
2023-05-11T07:09:08.272Z,14.27
2023-05-11T07:10:08.265Z,14.27
2023-05-11T07:11:08.252Z,14.29
2023-05-11T07:12:08.247Z,14.30
2023-05-11T07:13:08.232Z,14.30
2023-05-11T07:14:08.238Z,14.31
2023-05-11T07:15:08.205Z,14.27
2023-05-11T07:16:08.202Z,14.27
2023-05-11T07:17:08.285Z,14.30
2023-05-11T07:18:08.214Z,14.31
2023-05-11T07:19:08.291Z,14.34
2023-05-11T07:20:08.158Z,14.38
2023-05-11T07:21:08.150Z,14.41
2023-05-11T07:22:08.158Z,14.39
2023-05-11T07:23:08.130Z,14.44
2023-05-11T07:24:08.119Z,14.45
2023-05-11T07:25:08.097Z,14.45
2023-05-11T07:26:08.098Z,14.44
2023-05-11T07:27:08.074Z,14.45
2023-05-11T07:28:08.078Z,14.46
2023-05-11T07:29:08.056Z,14.49
2023-05-11T07:30:08.060Z,14.52
2023-05-11T07:31:08.127Z,14.53
2023-05-11T07:32:08.043Z,14.49
2023-05-11T07:33:08.063Z,14.49
2023-05-11T07:34:07.996Z,14.49
2023-05-11T07:35:08.001Z,14.49
2023-05-11T07:36:07.998Z,14.49
2023-05-11T07:37:07.976Z,14.49
2023-05-11T07:38:08.038Z,14.49
2023-05-11T07:39:07.951Z,14.49
2023-05-11T07:40:07.941Z,14.48
2023-05-11T07:41:09.494Z,14.49
2023-05-11T07:42:07.937Z,14.48
2023-05-11T07:43:07.920Z,14.48
2023-05-11T07:44:07.894Z,14.45
2023-05-11T07:45:07.880Z,14.46
2023-05-11T07:46:07.906Z,14.48
2023-05-11T07:47:07.867Z,14.48
2023-05-11T07:48:07.954Z,14.49
2023-05-11T07:50:08.842Z,14.54
2023-05-11T07:51:07.822Z,14.59
2023-05-11T07:52:07.812Z,14.64
2023-05-11T07:53:07.793Z,14.67
2023-05-11T07:54:07.789Z,14.71
2023-05-11T07:55:07.767Z,14.78
2023-05-11T07:56:07.784Z,14.79
2023-05-11T07:57:07.757Z,14.82
2023-05-11T07:58:07.752Z,14.78
2023-05-11T07:59:07.746Z,14.78
2023-05-11T08:00:08.207Z,14.80
2023-05-11T08:01:07.726Z,14.83
2023-05-11T08:02:07.724Z,14.82
2023-05-11T08:03:07.730Z,14.83
2023-05-11T08:04:07.695Z,14.83
2023-05-11T08:05:07.671Z,14.82
2023-05-11T08:06:07.702Z,14.79
2023-05-11T08:07:07.656Z,14.75
2023-05-11T08:08:07.641Z,14.72
2023-05-11T08:09:07.620Z,14.75
2023-05-11T08:10:07.618Z,14.75
2023-05-11T08:11:07.620Z,14.78
2023-05-11T08:12:07.594Z,14.79
2023-05-11T08:13:07.579Z,14.80
2023-05-11T08:14:07.582Z,14.86
2023-05-11T08:15:07.566Z,14.90
2023-05-11T08:16:07.587Z,14.94
2023-05-11T08:17:07.534Z,14.94
2023-05-11T08:18:07.638Z,14.93
2023-05-11T08:19:07.540Z,14.94
2023-05-11T08:20:07.534Z,14.97
2023-05-11T08:21:07.492Z,14.94
2023-05-11T08:22:07.490Z,14.94
2023-05-11T08:23:07.467Z,14.95
2023-05-11T08:24:07.626Z,14.97
2023-05-11T08:25:07.490Z,14.95
2023-05-11T08:26:07.446Z,14.97
2023-05-11T08:27:07.420Z,14.94
2023-05-11T08:28:07.440Z,14.95
2023-05-11T08:29:07.407Z,14.95
2023-05-11T08:30:08.500Z,14.98
2023-05-11T08:31:07.380Z,15.01
2023-05-11T08:32:07.440Z,15.01
2023-05-11T08:33:20.128Z,15.03
2023-05-11T08:34:17.847Z,14.98
2023-05-11T08:35:08.539Z,14.98
2023-05-11T08:36:07.352Z,14.98
2023-05-11T08:37:07.317Z,15.03
2023-05-11T08:38:07.313Z,15.01
2023-05-11T08:39:07.286Z,15.04
2023-05-11T08:40:07.286Z,14.98
2023-05-11T08:41:07.292Z,15.00
2023-05-11T08:42:07.353Z,15.01
2023-05-11T08:43:07.257Z,15.05
2023-05-11T08:44:07.272Z,15.07
2023-05-11T08:45:07.229Z,15.11
2023-05-11T08:46:07.312Z,15.13
2023-05-11T08:47:22.032Z,15.13
2023-05-11T08:48:08.286Z,15.12
2023-05-11T08:49:07.184Z,15.12
2023-05-11T08:50:07.191Z,15.12
2023-05-11T08:51:07.171Z,15.11
2023-05-11T08:52:07.943Z,15.09
2023-05-11T08:53:07.162Z,15.04
2023-05-11T08:54:07.139Z,15.05
2023-05-11T08:55:07.124Z,15.09
2023-05-11T08:56:07.113Z,15.13
2023-05-11T08:57:07.141Z,15.13
2023-05-11T08:58:07.100Z,15.16
2023-05-11T08:59:07.126Z,15.12
2023-05-11T09:00:07.075Z,15.09
2023-05-11T09:01:07.127Z,15.07
2023-05-11T09:02:07.048Z,15.11
2023-05-11T09:03:07.086Z,15.16
2023-05-11T09:04:07.024Z,15.18
2023-05-11T09:05:07.053Z,15.20
2023-05-11T09:06:07.025Z,15.23
2023-05-11T09:07:06.985Z,15.23
2023-05-11T09:08:06.991Z,15.23
2023-05-11T09:09:06.973Z,15.27
2023-05-11T09:10:06.957Z,15.25
2023-05-11T09:11:06.965Z,15.27
2023-05-11T09:12:06.932Z,15.28
2023-05-11T09:13:06.934Z,15.31
2023-05-11T09:14:06.928Z,15.27
2023-05-11T09:15:06.919Z,15.28
2023-05-11T09:16:13.874Z,15.28
2023-05-11T09:17:08.038Z,15.30
2023-05-11T09:18:06.988Z,15.33
2023-05-11T09:19:06.968Z,15.35
2023-05-11T09:20:06.855Z,15.35
2023-05-11T09:21:06.858Z,15.35
2023-05-11T09:22:06.837Z,15.37
2023-05-11T09:23:06.835Z,15.37
2023-05-11T09:24:06.811Z,15.38
2023-05-11T09:25:06.806Z,15.38
2023-05-11T09:26:06.796Z,15.34
2023-05-11T09:27:06.781Z,15.37
2023-05-11T09:28:06.782Z,15.38
2023-05-11T09:29:06.759Z,15.31
2023-05-11T09:30:06.762Z,15.28
2023-05-11T09:31:06.818Z,15.25
2023-05-11T09:32:06.730Z,15.28
2023-05-11T09:33:06.760Z,15.30
2023-05-11T09:34:06.707Z,15.31
2023-05-11T09:35:06.696Z,15.34
2023-05-11T09:36:06.695Z,15.37
2023-05-11T09:37:06.671Z,15.40
2023-05-11T09:38:06.688Z,15.43
2023-05-11T09:39:06.650Z,15.44
2023-05-11T09:40:26.307Z,15.46
2023-05-11T09:41:07.653Z,15.51
2023-05-11T09:42:06.611Z,15.53
2023-05-11T09:43:06.601Z,15.49
2023-05-11T09:44:06.595Z,15.52
2023-05-11T09:45:06.614Z,15.58
2023-05-11T09:46:06.620Z,15.56
2023-05-11T09:47:06.569Z,15.59
2023-05-11T09:48:06.651Z,15.59
2023-05-11T09:49:06.535Z,15.59
2023-05-11T09:50:06.565Z,15.62
2023-05-11T09:51:06.567Z,15.64
2023-05-11T09:52:06.529Z,15.64
2023-05-11T09:53:06.497Z,15.58
2023-05-11T09:54:06.480Z,15.64
2023-05-11T09:55:06.476Z,15.66
2023-05-11T09:56:06.471Z,15.68
2023-05-11T09:57:06.450Z,15.68
2023-05-11T09:58:06.461Z,15.70
2023-05-11T09:59:06.437Z,15.73
2023-05-11T10:00:06.415Z,15.76
2023-05-11T10:01:06.480Z,15.77
2023-05-11T10:02:06.396Z,15.78
2023-05-11T10:03:06.461Z,15.77
2023-05-11T10:04:21.956Z,15.78
2023-05-11T10:05:07.364Z,15.86
2023-05-11T10:06:06.349Z,15.88
2023-05-11T10:07:06.358Z,15.84
2023-05-11T10:08:06.338Z,15.85
2023-05-11T10:09:06.325Z,15.89
2023-05-11T10:10:06.328Z,15.89
2023-05-11T10:11:06.310Z,15.91
2023-05-11T10:12:06.305Z,15.85
2023-05-11T10:13:06.277Z,15.85
2023-05-11T10:14:06.272Z,15.84
2023-05-11T10:15:06.271Z,15.85
2023-05-11T10:16:06.318Z,15.81
2023-05-11T10:17:06.247Z,15.78
2023-05-11T10:18:06.292Z,15.76
2023-05-11T10:19:06.242Z,15.78
2023-05-11T10:20:06.262Z,15.80
2023-05-11T10:21:06.204Z,15.81
2023-05-11T10:22:06.187Z,15.76
2023-05-11T10:23:06.168Z,15.76
2023-05-11T10:24:06.173Z,15.78
2023-05-11T10:25:06.157Z,15.85
2023-05-11T10:26:06.132Z,15.92
2023-05-11T10:27:06.145Z,15.92
2023-05-11T10:28:06.101Z,15.92
2023-05-11T10:29:06.102Z,15.91
2023-05-11T10:30:06.096Z,15.89
2023-05-11T10:31:06.080Z,15.86
2023-05-11T10:32:06.102Z,15.85
2023-05-11T10:33:06.148Z,15.78
2023-05-11T10:34:06.043Z,15.76
2023-05-11T10:35:06.057Z,15.80
2023-05-11T10:36:06.017Z,15.85
2023-05-11T10:37:06.020Z,15.86
2023-05-11T10:38:06.018Z,15.91
2023-05-11T10:39:06.069Z,15.96
2023-05-11T10:40:05.987Z,15.96
2023-05-11T10:41:05.964Z,15.95
2023-05-11T10:42:05.973Z,15.85
2023-05-11T10:43:05.948Z,15.84
2023-05-11T10:44:05.934Z,15.86
2023-05-11T10:45:05.962Z,15.91
2023-05-11T10:46:05.979Z,15.92
2023-05-11T10:47:05.920Z,15.92
2023-05-11T10:48:05.944Z,15.95
2023-05-11T10:49:05.882Z,15.95
2023-05-11T10:50:05.864Z,15.92
2023-05-11T10:51:05.867Z,15.92
2023-05-11T10:52:05.844Z,15.91
2023-05-11T10:53:05.850Z,15.92
2023-05-11T10:54:05.815Z,15.92
2023-05-11T10:55:05.822Z,15.92
2023-05-11T10:56:05.804Z,15.92
2023-05-11T10:57:05.796Z,15.95
2023-05-11T10:58:05.806Z,15.96
2023-05-11T10:59:05.804Z,15.99
2023-05-11T11:00:05.794Z,16.01
2023-05-11T11:01:05.856Z,16.06
2023-05-11T11:02:05.734Z,16.08
2023-05-11T11:03:05.759Z,16.08
2023-05-11T11:04:05.749Z,16.08
2023-05-11T11:05:05.854Z,16.10
2023-05-11T11:06:05.764Z,16.11
2023-05-11T11:07:05.718Z,16.14
2023-05-11T11:08:05.723Z,16.10
2023-05-11T11:09:05.668Z,16.06
2023-05-11T11:10:05.660Z,16.08
2023-05-11T11:11:06.630Z,16.13
2023-05-11T11:12:05.628Z,16.16
2023-05-11T11:13:05.656Z,16.25
2023-05-11T11:14:05.857Z,16.29
2023-05-11T11:15:05.634Z,16.29
2023-05-11T11:16:05.588Z,16.29
2023-05-11T11:17:05.645Z,16.30
2023-05-11T11:18:05.629Z,16.30
2023-05-11T11:19:05.633Z,16.29
2023-05-11T11:20:05.560Z,16.27
2023-05-11T11:21:05.543Z,16.17
2023-05-11T11:22:05.531Z,16.18
2023-05-11T11:23:05.584Z,16.23
2023-05-11T11:24:05.504Z,16.27
2023-05-11T11:25:05.507Z,16.32
2023-05-11T11:26:05.482Z,16.37
2023-05-11T11:27:05.478Z,16.41
2023-05-11T11:28:05.497Z,16.44
2023-05-11T11:29:05.457Z,16.45
2023-05-11T11:30:05.446Z,16.48
2023-05-11T11:31:05.472Z,16.50
2023-05-11T11:32:05.421Z,16.48
2023-05-11T11:33:05.449Z,16.48
2023-05-11T11:34:05.393Z,16.50
2023-05-11T11:35:05.393Z,16.51
2023-05-11T11:36:05.371Z,16.48
2023-05-11T11:37:05.387Z,16.48
2023-05-11T11:38:05.542Z,16.47
2023-05-11T11:39:05.361Z,16.47
2023-05-11T11:40:13.906Z,16.47
2023-05-11T11:41:06.341Z,16.42
2023-05-11T11:42:05.313Z,16.45
2023-05-11T11:43:05.306Z,16.47
2023-05-11T11:44:05.298Z,16.48
2023-05-11T11:45:05.286Z,16.51
2023-05-11T11:46:05.311Z,16.45
2023-05-11T11:47:05.263Z,16.42
2023-05-11T11:48:05.270Z,16.47
2023-05-11T11:49:05.234Z,16.52
2023-05-11T11:50:05.232Z,16.55
2023-05-11T11:51:05.251Z,16.54
2023-05-11T11:52:05.213Z,16.60
2023-05-11T11:53:05.198Z,16.62
2023-05-11T11:54:05.183Z,16.69
2023-05-11T11:55:05.336Z,16.72
2023-05-11T11:56:05.184Z,16.78
2023-05-11T11:57:05.154Z,16.82
2023-05-11T11:58:05.145Z,16.88
2023-05-11T11:59:05.171Z,16.95
2023-05-11T12:00:05.115Z,17.00
2023-05-11T12:01:05.112Z,17.06
2023-05-11T12:02:05.093Z,17.09
2023-05-11T12:03:05.109Z,17.15
2023-05-11T12:04:05.432Z,17.27
2023-05-11T12:05:05.172Z,17.33
2023-05-11T12:06:05.076Z,17.36
2023-05-11T12:07:05.045Z,17.39
2023-05-11T12:08:05.028Z,17.40
2023-05-11T12:09:05.042Z,17.40
2023-05-11T12:10:05.054Z,17.40
2023-05-11T12:11:05.007Z,17.36
2023-05-11T12:12:04.991Z,17.32
2023-05-11T12:13:04.981Z,17.30
2023-05-11T12:14:04.977Z,17.32
2023-05-11T12:15:04.975Z,17.32
2023-05-11T12:16:04.982Z,17.33
2023-05-11T12:17:04.938Z,17.35
2023-05-11T12:18:04.977Z,17.35
2023-05-11T12:19:04.926Z,17.27
2023-05-11T12:20:04.914Z,17.24
2023-05-11T12:21:04.893Z,17.25
2023-05-11T12:22:04.929Z,17.27
2023-05-11T12:23:04.882Z,17.33
2023-05-11T12:24:04.912Z,17.39
2023-05-11T12:25:04.861Z,17.42
2023-05-11T12:26:04.839Z,17.45
2023-05-11T12:27:04.828Z,17.55
2023-05-11T12:28:04.805Z,17.62
2023-05-11T12:29:04.828Z,17.70
2023-05-11T12:30:04.811Z,17.74
2023-05-11T12:31:04.797Z,17.73
2023-05-11T12:32:04.822Z,17.76
2023-05-11T12:33:04.841Z,17.79
2023-05-11T12:34:04.750Z,17.80
2023-05-11T12:35:04.756Z,17.81
2023-05-11T12:36:04.737Z,17.86
2023-05-11T12:37:04.722Z,17.95
2023-05-11T12:38:04.722Z,18.09
2023-05-11T12:39:04.691Z,18.19
2023-05-11T12:40:04.691Z,18.32
2023-05-11T12:41:04.693Z,18.34
2023-05-11T12:42:04.661Z,18.36
2023-05-11T12:43:04.662Z,18.35
2023-05-11T12:44:04.642Z,18.34
2023-05-11T12:45:04.644Z,18.42
2023-05-11T12:46:04.643Z,18.54
2023-05-11T12:47:04.612Z,18.64
2023-05-11T12:48:04.661Z,18.75
2023-05-11T12:49:04.605Z,18.83
2023-05-11T12:50:04.575Z,18.86
2023-05-11T12:51:04.597Z,18.82
2023-05-11T12:52:04.551Z,18.75
2023-05-11T12:53:04.556Z,18.71